sensor_id;sensor_type;location;lat;lon;timestamp;pressure;altitude;pressure_sealevel;temperature;humidity
61026;BME280;46911;32.650;-16.902;2022-07-29T00:01:43;101794.31;;;21.63;83.10
61026;BME280;46911;32.650;-16.902;2022-07-29T00:03:50;101775.09;;;21.46;83.12
61026;BME280;46911;32.650;-16.902;2022-07-29T00:05:56;101793.06;;;21.57;83.23
61026;BME280;46911;32.650;-16.902;2022-07-29T00:07:59;101773.06;;;21.48;83.09
61026;BME280;46911;32.650;-16.902;2022-07-29T00:10:03;101774.47;;;21.52;83.34
61026;BME280;46911;32.650;-16.902;2022-07-29T00:12:07;101763.63;;;21.52;83.19
61026;BME280;46911;32.650;-16.902;2022-07-29T00:14:08;101768.97;;;21.54;82.73
61026;BME280;46911;32.650;-16.902;2022-07-29T00:16:09;101779.59;;;21.65;83.08
61026;BME280;46911;32.650;-16.902;2022-07-29T00:18:09;101755.91;;;21.57;82.78
61026;BME280;46911;32.650;-16.902;2022-07-29T00:20:13;101772.84;;;21.69;82.66
61026;BME280;46911;32.650;-16.902;2022-07-29T00:22:21;101761.75;;;21.63;82.53
61026;BME280;46911;32.650;-16.902;2022-07-29T00:24:22;101755.31;;;21.64;82.40
61026;BME280;46911;32.650;-16.902;2022-07-29T00:26:25;101761.84;;;21.71;82.27
61026;BME280;46911;32.650;-16.902;2022-07-29T00:28:30;101776.81;;;21.75;82.73
61026;BME280;46911;32.650;-16.902;2022-07-29T00:30:36;101748.72;;;21.66;82.44
61026;BME280;46911;32.650;-16.902;2022-07-29T00:32:37;101761.22;;;21.77;82.25
61026;BME280;46911;32.650;-16.902;2022-07-29T00:34:38;101744.13;;;21.67;81.57
61026;BME280;46911;32.650;-16.902;2022-07-29T00:36:57;101764.19;;;21.84;81.60
61026;BME280;46911;32.650;-16.902;2022-07-29T00:38:58;101760.75;;;21.82;81.46
61026;BME280;46911;32.650;-16.902;2022-07-29T00:40:59;101762.06;;;21.78;81.19
61026;BME280;46911;32.650;-16.902;2022-07-29T00:43:03;101762.94;;;21.78;81.18
61026;BME280;46911;32.650;-16.902;2022-07-29T00:45:04;101745.44;;;21.63;81.47
61026;BME280;46911;32.650;-16.902;2022-07-29T00:47:06;101751.69;;;21.73;81.45
61026;BME280;46911;32.650;-16.902;2022-07-29T00:49:10;101735.75;;;21.60;81.41
61026;BME280;46911;32.650;-16.902;2022-07-29T00:51:13;101750.72;;;21.64;81.47
61026;BME280;46911;32.650;-16.902;2022-07-29T00:53:14;101749.00;;;21.63;81.59
61026;BME280;46911;32.650;-16.902;2022-07-29T00:55:17;101757.47;;;21.60;81.67
61026;BME280;46911;32.650;-16.902;2022-07-29T00:57:18;101751.72;;;21.63;80.97
61026;BME280;46911;32.650;-16.902;2022-07-29T00:59:19;101745.13;;;21.66;81.03
61026;BME280;46911;32.650;-16.902;2022-07-29T01:01:20;101735.91;;;21.59;80.36
61026;BME280;46911;32.650;-16.902;2022-07-29T01:03:21;101744.88;;;21.59;80.59
61026;BME280;46911;32.650;-16.902;2022-07-29T01:05:24;101736.38;;;21.54;80.33
61026;BME280;46911;32.650;-16.902;2022-07-29T01:07:26;101724.84;;;21.42;80.77
61026;BME280;46911;32.650;-16.902;2022-07-29T01:09:31;101717.69;;;21.41;80.68
61026;BME280;46911;32.650;-16.902;2022-07-29T01:11:33;101720.41;;;21.41;80.41
61026;BME280;46911;32.650;-16.902;2022-07-29T01:13:42;101733.38;;;21.47;80.55
61026;BME280;46911;32.650;-16.902;2022-07-29T01:15:45;101714.56;;;21.36;80.71
61026;BME280;46911;32.650;-16.902;2022-07-29T01:18:01;101736.09;;;21.47;80.54
61026;BME280;46911;32.650;-16.902;2022-07-29T01:20:14;101708.66;;;21.40;80.37
61026;BME280;46911;32.650;-16.902;2022-07-29T01:25:17;101739.25;;;21.43;80.46
61026;BME280;46911;32.650;-16.902;2022-07-29T01:28:14;101719.16;;;21.35;80.72
61026;BME280;46911;32.650;-16.902;2022-07-29T01:29:59;101726.84;;;21.40;80.41
61026;BME280;46911;32.650;-16.902;2022-07-29T01:32:12;101733.41;;;21.37;80.54
61026;BME280;46911;32.650;-16.902;2022-07-29T01:34:21;101734.72;;;21.33;80.66
61026;BME280;46911;32.650;-16.902;2022-07-29T01:36:32;101737.13;;;21.36;80.75
61026;BME280;46911;32.650;-16.902;2022-07-29T01:38:38;101731.00;;;21.34;80.75
61026;BME280;46911;32.650;-16.902;2022-07-29T01:40:46;101734.72;;;21.33;81.02
61026;BME280;46911;32.650;-16.902;2022-07-29T01:42:58;101709.78;;;21.20;81.11
61026;BME280;46911;32.650;-16.902;2022-07-29T01:45:15;101714.78;;;21.24;81.40
61026;BME280;46911;32.650;-16.902;2022-07-29T01:47:20;101727.56;;;21.32;81.40
61026;BME280;46911;32.650;-16.902;2022-07-29T01:49:35;101732.31;;;21.30;81.26
61026;BME280;46911;32.650;-16.902;2022-07-29T01:54:03;101726.78;;;21.22;81.45
61026;BME280;46911;32.650;-16.902;2022-07-29T01:56:08;101722.06;;;21.24;81.49
61026;BME280;46911;32.650;-16.902;2022-07-29T01:58:14;101731.59;;;21.28;81.79
61026;BME280;46911;32.650;-16.902;2022-07-29T02:00:21;101703.53;;;21.19;81.33
61026;BME280;46911;32.650;-16.902;2022-07-29T02:02:23;101725.88;;;21.31;81.32
61026;BME280;46911;32.650;-16.902;2022-07-29T02:04:26;101699.34;;;21.25;81.28
61026;BME280;46911;32.650;-16.902;2022-07-29T02:06:32;101701.47;;;21.31;81.10
61026;BME280;46911;32.650;-16.902;2022-07-29T02:08:38;101704.19;;;21.31;81.05
61026;BME280;46911;32.650;-16.902;2022-07-29T02:10:43;101700.16;;;21.35;80.70
61026;BME280;46911;32.650;-16.902;2022-07-29T02:12:52;101715.38;;;21.46;80.27
61026;BME280;46911;32.650;-16.902;2022-07-29T02:15:02;101708.38;;;21.44;80.09
61026;BME280;46911;32.650;-16.902;2022-07-29T02:17:07;101719.94;;;21.55;79.87
61026;BME280;46911;32.650;-16.902;2022-07-29T02:19:12;101719.78;;;21.57;79.84
61026;BME280;46911;32.650;-16.902;2022-07-29T02:21:15;101705.75;;;21.52;79.59
61026;BME280;46911;32.650;-16.902;2022-07-29T02:23:26;101720.03;;;21.64;79.52
61026;BME280;46911;32.650;-16.902;2022-07-29T02:25:30;101718.84;;;21.66;79.40
61026;BME280;46911;32.650;-16.902;2022-07-29T02:27:37;101701.44;;;21.59;79.13
61026;BME280;46911;32.650;-16.902;2022-07-29T02:29:41;101702.94;;;21.53;79.06
61026;BME280;46911;32.650;-16.902;2022-07-29T02:31:46;101704.72;;;21.63;78.37
61026;BME280;46911;32.650;-16.902;2022-07-29T02:33:54;101720.81;;;21.74;78.09
61026;BME280;46911;32.650;-16.902;2022-07-29T02:36:01;101729.09;;;21.72;78.19
61026;BME280;46911;32.650;-16.902;2022-07-29T02:38:05;101719.84;;;21.65;78.31
61026;BME280;46911;32.650;-16.902;2022-07-29T02:40:25;101716.06;;;21.58;78.19
61026;BME280;46911;32.650;-16.902;2022-07-29T02:42:29;101716.34;;;21.55;78.34
61026;BME280;46911;32.650;-16.902;2022-07-29T02:44:31;101718.06;;;21.56;78.15
61026;BME280;46911;32.650;-16.902;2022-07-29T02:46:36;101721.19;;;21.61;77.92
61026;BME280;46911;32.650;-16.902;2022-07-29T02:49:02;101701.66;;;21.48;78.30
61026;BME280;46911;32.650;-16.902;2022-07-29T02:51:08;101723.66;;;21.54;78.08
61026;BME280;46911;32.650;-16.902;2022-07-29T02:53:13;101724.78;;;21.52;78.35
61026;BME280;46911;32.650;-16.902;2022-07-29T02:55:19;101702.16;;;21.33;78.23
61026;BME280;46911;32.650;-16.902;2022-07-29T02:59:27;101718.06;;;21.56;79.55
61026;BME280;46911;32.650;-16.902;2022-07-29T03:01:32;101709.63;;;21.49;79.59
61026;BME280;46911;32.650;-16.902;2022-07-29T03:03:37;101708.94;;;21.47;79.59
61026;BME280;46911;32.650;-16.902;2022-07-29T03:05:40;101708.91;;;21.57;79.60
61026;BME280;46911;32.650;-16.902;2022-07-29T03:07:43;101692.19;;;21.52;79.77
61026;BME280;46911;32.650;-16.902;2022-07-29T03:09:51;101696.53;;;21.45;79.91
61026;BME280;46911;32.650;-16.902;2022-07-29T03:11:58;101702.50;;;21.48;79.80
61026;BME280;46911;32.650;-16.902;2022-07-29T03:14:04;101687.38;;;21.46;79.91
61026;BME280;46911;32.650;-16.902;2022-07-29T03:16:10;101693.47;;;21.57;80.15
61026;BME280;46911;32.650;-16.902;2022-07-29T03:18:16;101702.56;;;21.66;80.14
61026;BME280;46911;32.650;-16.902;2022-07-29T03:20:17;101686.31;;;21.56;80.19
61026;BME280;46911;32.650;-16.902;2022-07-29T03:22:19;101687.75;;;21.61;80.24
61026;BME280;46911;32.650;-16.902;2022-07-29T03:24:33;101701.94;;;21.72;79.93
61026;BME280;46911;32.650;-16.902;2022-07-29T03:26:35;101700.78;;;21.75;79.94
61026;BME280;46911;32.650;-16.902;2022-07-29T03:28:36;101701.94;;;21.72;79.82
61026;BME280;46911;32.650;-16.902;2022-07-29T03:30:38;101692.38;;;21.68;79.96
61026;BME280;46911;32.650;-16.902;2022-07-29T03:32:42;101712.19;;;21.79;79.89
61026;BME280;46911;32.650;-16.902;2022-07-29T03:34:43;101708.47;;;21.80;79.88
61026;BME280;46911;32.650;-16.902;2022-07-29T03:36:44;101677.56;;;21.63;79.79
61026;BME280;46911;32.650;-16.902;2022-07-29T03:38:48;101706.59;;;21.80;79.84
61026;BME280;46911;32.650;-16.902;2022-07-29T03:40:52;101700.78;;;21.75;80.49
61026;BME280;46911;32.650;-16.902;2022-07-29T03:42:54;101719.94;;;21.73;80.79
61026;BME280;46911;32.650;-16.902;2022-07-29T03:45:01;101703.41;;;21.67;80.65
61026;BME280;46911;32.650;-16.902;2022-07-29T03:47:04;101702.00;;;21.63;80.30
61026;BME280;46911;32.650;-16.902;2022-07-29T03:49:08;101705.69;;;21.71;80.39
61026;BME280;46911;32.650;-16.902;2022-07-29T03:51:13;101700.28;;;21.62;80.52
61026;BME280;46911;32.650;-16.902;2022-07-29T03:53:14;101711.47;;;21.59;80.54
61026;BME280;46911;32.650;-16.902;2022-07-29T03:55:16;101708.44;;;21.62;80.66
61026;BME280;46911;32.650;-16.902;2022-07-29T03:57:23;101690.47;;;21.51;80.83
61026;BME280;46911;32.650;-16.902;2022-07-29T03:59:25;101701.16;;;21.62;80.85
61026;BME280;46911;32.650;-16.902;2022-07-29T04:01:29;101695.34;;;21.57;80.94
61026;BME280;46911;32.650;-16.902;2022-07-29T04:03:30;101690.06;;;21.55;80.77
61026;BME280;46911;32.650;-16.902;2022-07-29T04:05:31;101707.84;;;21.68;81.01
61026;BME280;46911;32.650;-16.902;2022-07-29T04:07:32;101702.41;;;21.68;81.04
61026;BME280;46911;32.650;-16.902;2022-07-29T04:09:33;101688.91;;;21.58;80.83
61026;BME280;46911;32.650;-16.902;2022-07-29T04:11:34;101705.28;;;21.66;81.14
61026;BME280;46911;32.650;-16.902;2022-07-29T04:13:40;101700.22;;;21.53;81.97
61026;BME280;46911;32.650;-16.902;2022-07-29T04:15:41;101701.19;;;21.52;81.81
61026;BME280;46911;32.650;-16.902;2022-07-29T04:17:44;101717.63;;;21.61;82.21
61026;BME280;46911;32.650;-16.902;2022-07-29T04:19:47;101696.91;;;21.50;82.05
61026;BME280;46911;32.650;-16.902;2022-07-29T04:21:51;101702.06;;;21.53;82.16
61026;BME280;46911;32.650;-16.902;2022-07-29T04:23:52;101711.00;;;21.63;82.23
61026;BME280;46911;32.650;-16.902;2022-07-29T04:25:52;101703.47;;;21.57;82.26
61026;BME280;46911;32.650;-16.902;2022-07-29T04:27:53;101713.44;;;21.66;82.26
61026;BME280;46911;32.650;-16.902;2022-07-29T04:30:01;101715.16;;;21.67;82.19
61026;BME280;46911;32.650;-16.902;2022-07-29T04:32:02;101696.25;;;21.66;82.11
61026;BME280;46911;32.650;-16.902;2022-07-29T04:34:03;101720.19;;;21.80;81.96
61026;BME280;46911;32.650;-16.902;2022-07-29T04:36:04;101717.03;;;21.85;81.93
61026;BME280;46911;32.650;-16.902;2022-07-29T04:38:06;101719.03;;;21.83;82.07
61026;BME280;46911;32.650;-16.902;2022-07-29T04:40:09;101703.97;;;21.70;82.18
61026;BME280;46911;32.650;-16.902;2022-07-29T04:42:10;101697.41;;;21.63;82.36
61026;BME280;46911;32.650;-16.902;2022-07-29T04:44:11;101714.03;;;21.60;82.29
61026;BME280;46911;32.650;-16.902;2022-07-29T04:46:12;101701.09;;;21.44;82.62
61026;BME280;46911;32.650;-16.902;2022-07-29T04:48:15;101724.06;;;21.50;83.01
61026;BME280;46911;32.650;-16.902;2022-07-29T04:50:16;101707.59;;;21.33;83.82
61026;BME280;46911;32.650;-16.902;2022-07-29T04:52:24;101707.03;;;21.30;83.97
61026;BME280;46911;32.650;-16.902;2022-07-29T04:54:25;101682.88;;;21.09;84.31
61026;BME280;46911;32.650;-16.902;2022-07-29T04:56:26;101724.75;;;21.24;84.67
61026;BME280;46911;32.650;-16.902;2022-07-29T04:58:29;101720.81;;;21.18;84.95
61026;BME280;46911;32.650;-16.902;2022-07-29T05:00:32;101724.34;;;21.19;85.17
61026;BME280;46911;32.650;-16.902;2022-07-29T05:02:33;101701.56;;;21.12;85.63
61026;BME280;46911;32.650;-16.902;2022-07-29T05:04:39;101711.69;;;21.10;85.72
61026;BME280;46911;32.650;-16.902;2022-07-29T05:06:39;101715.69;;;21.05;85.85
61026;BME280;46911;32.650;-16.902;2022-07-29T05:08:45;101707.72;;;21.04;86.11
61026;BME280;46911;32.650;-16.902;2022-07-29T05:10:46;101707.03;;;20.92;86.37
61026;BME280;46911;32.650;-16.902;2022-07-29T05:12:49;101708.75;;;20.93;86.47
61026;BME280;46911;32.650;-16.902;2022-07-29T05:14:53;101717.91;;;20.92;86.60
61026;BME280;46911;32.650;-16.902;2022-07-29T05:16:58;101717.19;;;20.90;86.87
61026;BME280;46911;32.650;-16.902;2022-07-29T05:18:59;101706.53;;;20.79;86.79
61026;BME280;46911;32.650;-16.902;2022-07-29T05:21:00;101725.63;;;20.87;86.79
61026;BME280;46911;32.650;-16.902;2022-07-29T05:23:06;101711.38;;;20.75;86.75
61026;BME280;46911;32.650;-16.902;2022-07-29T05:25:09;101718.66;;;20.74;86.85
61026;BME280;46911;32.650;-16.902;2022-07-29T05:27:16;101712.81;;;20.69;87.50
61026;BME280;46911;32.650;-16.902;2022-07-29T05:29:17;101732.94;;;20.77;87.42
61026;BME280;46911;32.650;-16.902;2022-07-29T05:31:20;101737.06;;;20.81;87.44
61026;BME280;46911;32.650;-16.902;2022-07-29T05:33:23;101730.91;;;20.79;87.69
61026;BME280;46911;32.650;-16.902;2022-07-29T05:35:27;101727.22;;;20.80;87.89
61026;BME280;46911;32.650;-16.902;2022-07-29T05:37:28;101734.06;;;20.84;87.87
61026;BME280;46911;32.650;-16.902;2022-07-29T05:39:31;101733.06;;;20.85;87.98
61026;BME280;46911;32.650;-16.902;2022-07-29T05:41:34;101718.34;;;20.78;87.85
61026;BME280;46911;32.650;-16.902;2022-07-29T05:43:35;101731.91;;;20.87;87.55
61026;BME280;46911;32.650;-16.902;2022-07-29T05:45:38;101716.06;;;20.93;87.23
61026;BME280;46911;32.650;-16.902;2022-07-29T05:47:41;101736.97;;;21.10;86.51
61026;BME280;46911;32.650;-16.902;2022-07-29T05:49:42;101733.38;;;21.10;86.01
61026;BME280;46911;32.650;-16.902;2022-07-29T05:51:44;101740.19;;;21.23;84.91
61026;BME280;46911;32.650;-16.902;2022-07-29T05:53:44;101745.00;;;21.30;84.42
61026;BME280;46911;32.650;-16.902;2022-07-29T05:55:48;101748.13;;;21.35;83.95
61026;BME280;46911;32.650;-16.902;2022-07-29T05:57:52;101722.06;;;21.24;83.50
61026;BME280;46911;32.650;-16.902;2022-07-29T05:59:57;101742.28;;;21.39;83.07
61026;BME280;46911;32.650;-16.902;2022-07-29T06:01:58;101743.84;;;21.42;82.96
61026;BME280;46911;32.650;-16.902;2022-07-29T06:03:59;101731.25;;;21.41;82.67
61026;BME280;46911;32.650;-16.902;2022-07-29T06:05:59;101725.28;;;21.37;82.71
61026;BME280;46911;32.650;-16.902;2022-07-29T06:08:03;101732.56;;;21.37;82.69
61026;BME280;46911;32.650;-16.902;2022-07-29T06:10:06;101743.97;;;21.40;82.91
61026;BME280;46911;32.650;-16.902;2022-07-29T06:12:07;101756.09;;;21.46;83.00
61026;BME280;46911;32.650;-16.902;2022-07-29T06:14:10;101756.09;;;21.46;83.22
61026;BME280;46911;32.650;-16.902;2022-07-29T06:16:13;101750.66;;;21.46;83.52
61026;BME280;46911;32.650;-16.902;2022-07-29T06:18:14;101741.00;;;21.34;83.41
61026;BME280;46911;32.650;-16.902;2022-07-29T06:20:15;101733.56;;;21.36;83.49
61026;BME280;46911;32.650;-16.902;2022-07-29T06:22:16;101754.81;;;21.40;83.74
61026;BME280;46911;32.650;-16.902;2022-07-29T06:24:17;101759.72;;;21.37;84.35
61026;BME280;46911;32.650;-16.902;2022-07-29T06:26:18;101753.72;;;21.33;84.27
61026;BME280;46911;32.650;-16.902;2022-07-29T06:28:27;101745.78;;;21.22;83.79
61026;BME280;46911;32.650;-16.902;2022-07-29T06:30:31;101760.44;;;21.29;83.61
61026;BME280;46911;32.650;-16.902;2022-07-29T06:32:35;101754.63;;;21.24;82.67
61026;BME280;46911;32.650;-16.902;2022-07-29T06:34:36;101748.81;;;21.09;82.29
61026;BME280;46911;32.650;-16.902;2022-07-29T06:36:40;101757.94;;;21.18;82.23
61026;BME280;46911;32.650;-16.902;2022-07-29T06:38:43;101747.56;;;21.03;81.97
61026;BME280;46911;32.650;-16.902;2022-07-29T06:40:44;101762.81;;;21.14;81.99
61026;BME280;46911;32.650;-16.902;2022-07-29T06:43:05;101766.09;;;21.18;81.91
61026;BME280;46911;32.650;-16.902;2022-07-29T06:45:06;101753.41;;;21.09;81.57
61026;BME280;46911;32.650;-16.902;2022-07-29T06:47:10;101752.25;;;21.11;82.03
61026;BME280;46911;32.650;-16.902;2022-07-29T06:49:13;101773.91;;;21.21;81.33
61026;BME280;46911;32.650;-16.902;2022-07-29T06:51:14;101759.94;;;21.16;81.25
61026;BME280;46911;32.650;-16.902;2022-07-29T06:53:18;101753.06;;;21.21;80.63
61026;BME280;46911;32.650;-16.902;2022-07-29T06:55:18;101743.91;;;21.22;79.90
61026;BME280;46911;32.650;-16.902;2022-07-29T06:57:22;101752.97;;;21.41;79.50
61026;BME280;46911;32.650;-16.902;2022-07-29T06:59:22;101756.50;;;21.51;78.82
61026;BME280;46911;32.650;-16.902;2022-07-29T07:01:26;101763.91;;;21.59;78.73
61026;BME280;46911;32.650;-16.902;2022-07-29T07:03:27;101778.38;;;21.78;78.14
61026;BME280;46911;32.650;-16.902;2022-07-29T07:05:28;101779.34;;;21.86;77.63
61026;BME280;46911;32.650;-16.902;2022-07-29T07:07:29;101778.19;;;21.89;76.46
61026;BME280;46911;32.650;-16.902;2022-07-29T07:09:29;101778.84;;;21.91;76.74
61026;BME280;46911;32.650;-16.902;2022-07-29T07:11:33;101770.63;;;21.83;76.69
61026;BME280;46911;32.650;-16.902;2022-07-29T07:13:34;101761.63;;;21.82;76.38
61026;BME280;46911;32.650;-16.902;2022-07-29T07:15:38;101764.19;;;21.84;76.54
61026;BME280;46911;32.650;-16.902;2022-07-29T07:17:41;101746.50;;;21.80;77.07
61026;BME280;46911;32.650;-16.902;2022-07-29T07:19:45;101776.22;;;21.99;77.21
61026;BME280;46911;32.650;-16.902;2022-07-29T07:21:46;101780.97;;;21.97;77.84
61026;BME280;46911;32.650;-16.902;2022-07-29T07:23:49;101773.50;;;21.99;77.65
61026;BME280;46911;32.650;-16.902;2022-07-29T07:25:50;101767.03;;;22.10;77.41
61026;BME280;46911;32.650;-16.902;2022-07-29T07:27:51;101773.28;;;22.29;76.97
61026;BME280;46911;32.650;-16.902;2022-07-29T07:29:52;101779.28;;;22.32;76.89
61026;BME280;46911;32.650;-16.902;2022-07-29T07:31:59;101779.69;;;22.37;77.04
61026;BME280;46911;32.650;-16.902;2022-07-29T07:34:00;101760.66;;;22.37;76.81
61026;BME280;46911;32.650;-16.902;2022-07-29T07:36:02;101767.03;;;22.46;76.92
61026;BME280;46911;32.650;-16.902;2022-07-29T07:38:07;101768.44;;;22.50;77.17
61026;BME280;46911;32.650;-16.902;2022-07-29T07:40:14;101758.28;;;22.61;76.46
61026;BME280;46911;32.650;-16.902;2022-07-29T07:42:18;101781.59;;;22.63;76.54
61026;BME280;46911;32.650;-16.902;2022-07-29T07:44:19;101773.47;;;22.45;77.14
61026;BME280;46911;32.650;-16.902;2022-07-29T07:46:20;101764.09;;;22.39;77.64
61026;BME280;46911;32.650;-16.902;2022-07-29T07:48:23;101779.16;;;22.52;78.35
61026;BME280;46911;32.650;-16.902;2022-07-29T07:50:26;101772.31;;;22.48;78.24
61026;BME280;46911;32.650;-16.902;2022-07-29T07:52:27;101787.06;;;22.45;79.10
61026;BME280;46911;32.650;-16.902;2022-07-29T07:54:27;101781.81;;;22.44;79.75
61026;BME280;46911;32.650;-16.902;2022-07-29T07:56:33;101772.72;;;22.35;79.60
61026;BME280;46911;32.650;-16.902;2022-07-29T07:58:34;101793.50;;;22.62;79.19
61026;BME280;46911;32.650;-16.902;2022-07-29T08:00:38;101776.25;;;22.53;79.17
61026;BME280;46911;32.650;-16.902;2022-07-29T08:02:41;101781.88;;;22.52;79.06
61026;BME280;46911;32.650;-16.902;2022-07-29T08:04:45;101769.88;;;22.63;78.97
61026;BME280;46911;32.650;-16.902;2022-07-29T08:06:50;101776.97;;;22.82;78.12
61026;BME280;46911;32.650;-16.902;2022-07-29T08:08:51;101769.19;;;22.87;76.99
61026;BME280;46911;32.650;-16.902;2022-07-29T08:10:52;101788.41;;;23.12;76.41
61026;BME280;46911;32.650;-16.902;2022-07-29T08:12:53;101779.94;;;23.15;75.96
61026;BME280;46911;32.650;-16.902;2022-07-29T08:14:56;101777.59;;;23.20;75.88
61026;BME280;46911;32.650;-16.902;2022-07-29T08:16:57;101789.19;;;23.30;75.56
61026;BME280;46911;32.650;-16.902;2022-07-29T08:18:58;101783.69;;;23.14;75.77
61026;BME280;46911;32.650;-16.902;2022-07-29T08:20:58;101794.50;;;23.05;76.67
61026;BME280;46911;32.650;-16.902;2022-07-29T08:23:02;101776.81;;;23.10;76.33
61026;BME280;46911;32.650;-16.902;2022-07-29T08:25:03;101790.88;;;23.23;76.13
61026;BME280;46911;32.650;-16.902;2022-07-29T08:27:04;101808.13;;;23.32;75.98
61026;BME280;46911;32.650;-16.902;2022-07-29T08:29:05;101789.00;;;23.23;75.88
61026;BME280;46911;32.650;-16.902;2022-07-29T08:31:09;101799.66;;;23.43;75.75
61026;BME280;46911;32.650;-16.902;2022-07-29T08:33:12;101799.81;;;23.42;75.20
61026;BME280;46911;32.650;-16.902;2022-07-29T08:35:15;101786.19;;;23.33;75.48
61026;BME280;46911;32.650;-16.902;2022-07-29T08:37:18;101795.25;;;23.50;74.94
61026;BME280;46911;32.650;-16.902;2022-07-29T08:39:23;101795.88;;;23.36;75.39
61026;BME280;46911;32.650;-16.902;2022-07-29T08:41:24;101802.81;;;23.30;75.70
61026;BME280;46911;32.650;-16.902;2022-07-29T08:43:25;101801.06;;;23.21;76.39
61026;BME280;46911;32.650;-16.902;2022-07-29T08:45:44;101812.22;;;23.36;75.85
61026;BME280;46911;32.650;-16.902;2022-07-29T08:47:47;101804.47;;;23.23;76.50
61026;BME280;46911;32.650;-16.902;2022-07-29T08:49:48;101803.84;;;23.29;76.00
61026;BME280;46911;32.650;-16.902;2022-07-29T08:51:53;101784.38;;;23.16;76.00
61026;BME280;46911;32.650;-16.902;2022-07-29T08:53:57;101807.25;;;23.31;76.12
61026;BME280;46911;32.650;-16.902;2022-07-29T08:55:58;101789.34;;;23.55;75.63
61026;BME280;46911;32.650;-16.902;2022-07-29T08:58:05;101798.63;;;23.79;74.51
61026;BME280;46911;32.650;-16.902;2022-07-29T09:00:07;101798.91;;;23.67;74.18
61026;BME280;46911;32.650;-16.902;2022-07-29T09:02:18;101787.38;;;23.82;73.11
61026;BME280;46911;32.650;-16.902;2022-07-29T09:04:24;101789.75;;;23.85;72.90
61026;BME280;46911;32.650;-16.902;2022-07-29T09:06:29;101805.31;;;23.93;72.57
61026;BME280;46911;32.650;-16.902;2022-07-29T09:08:34;101797.03;;;24.11;72.32
61026;BME280;46911;32.650;-16.902;2022-07-29T09:10:37;101796.69;;;24.14;71.68
61026;BME280;46911;32.650;-16.902;2022-07-29T09:12:47;101800.97;;;24.33;71.43
61026;BME280;46911;32.650;-16.902;2022-07-29T09:14:49;101800.66;;;24.77;70.22
61026;BME280;46911;32.650;-16.902;2022-07-29T09:16:55;101788.91;;;24.68;69.68
61026;BME280;46911;32.650;-16.902;2022-07-29T09:18:58;101802.81;;;25.06;69.19
61026;BME280;46911;32.650;-16.902;2022-07-29T09:21:03;101808.66;;;24.70;69.92
61026;BME280;46911;32.650;-16.902;2022-07-29T09:23:22;101807.13;;;24.68;70.10
61026;BME280;46911;32.650;-16.902;2022-07-29T09:27:34;101800.28;;;26.24;65.29
61026;BME280;46911;32.650;-16.902;2022-07-29T09:29:37;101795.75;;;26.39;64.15
61026;BME280;46911;32.650;-16.902;2022-07-29T09:31:43;101801.84;;;25.95;64.39
61026;BME280;46911;32.650;-16.902;2022-07-29T09:33:44;101809.72;;;25.50;66.28
61026;BME280;46911;32.650;-16.902;2022-07-29T09:36:03;101809.72;;;25.90;66.07
61026;BME280;46911;32.650;-16.902;2022-07-29T09:38:14;101791.31;;;26.38;64.09
61026;BME280;46911;32.650;-16.902;2022-07-29T09:40:22;101799.53;;;26.15;63.90
61026;BME280;46911;32.650;-16.902;2022-07-29T09:42:29;101798.34;;;25.78;64.91
61026;BME280;46911;32.650;-16.902;2022-07-29T09:44:49;101799.84;;;25.41;66.31
61026;BME280;46911;32.650;-16.902;2022-07-29T09:46:59;101791.34;;;25.36;66.06
61026;BME280;46911;32.650;-16.902;2022-07-29T09:49:07;101785.31;;;25.49;65.46
61026;BME280;46911;32.650;-16.902;2022-07-29T09:51:18;101803.84;;;26.10;63.54
61026;BME280;46911;32.650;-16.902;2022-07-29T09:53:37;101806.44;;;25.95;63.33
61026;BME280;46911;32.650;-16.902;2022-07-29T09:55:51;101790.59;;;25.90;63.57
61026;BME280;46911;32.650;-16.902;2022-07-29T09:58:18;101799.81;;;25.89;63.80
61026;BME280;46911;32.650;-16.902;2022-07-29T10:00:20;101802.81;;;25.71;64.31
61026;BME280;46911;32.650;-16.902;2022-07-29T10:02:27;101808.66;;;25.99;63.23
61026;BME280;46911;32.650;-16.902;2022-07-29T10:04:40;101787.97;;;25.73;63.54
61026;BME280;46911;32.650;-16.902;2022-07-29T10:09:08;101806.13;;;26.67;61.33
61026;BME280;46911;32.650;-16.902;2022-07-29T10:11:16;101795.38;;;26.66;61.43
61026;BME280;46911;32.650;-16.902;2022-07-29T10:13:17;101803.19;;;26.69;61.63
61026;BME280;46911;32.650;-16.902;2022-07-29T10:15:18;101807.22;;;26.81;61.31
61026;BME280;46911;32.650;-16.902;2022-07-29T10:17:22;101799.44;;;26.70;61.02
61026;BME280;46911;32.650;-16.902;2022-07-29T10:19:23;101803.56;;;27.19;60.10
61026;BME280;46911;32.650;-16.902;2022-07-29T10:21:29;101812.00;;;27.62;59.36
61026;BME280;46911;32.650;-16.902;2022-07-29T10:23:33;101802.47;;;27.58;58.28
61026;BME280;46911;32.650;-16.902;2022-07-29T10:25:34;101791.78;;;27.03;59.98
61026;BME280;46911;32.650;-16.902;2022-07-29T10:27:38;101805.34;;;26.82;60.87
61026;BME280;46911;32.650;-16.902;2022-07-29T10:29:40;101810.63;;;26.83;61.61
61026;BME280;46911;32.650;-16.902;2022-07-29T10:34:11;101806.13;;;27.05;60.55
61026;BME280;46911;32.650;-16.902;2022-07-29T10:36:46;101819.25;;;26.95;60.86
61026;BME280;46911;32.650;-16.902;2022-07-29T10:41:26;101812.88;;;26.80;61.11
61026;BME280;46911;32.650;-16.902;2022-07-29T10:43:33;101807.31;;;26.50;62.39
61026;BME280;46911;32.650;-16.902;2022-07-29T10:45:36;101812.44;;;26.68;61.60
61026;BME280;46911;32.650;-16.902;2022-07-29T10:47:37;101809.31;;;26.10;63.21
61026;BME280;46911;32.650;-16.902;2022-07-29T10:49:55;101815.50;;;25.95;64.18
61026;BME280;46911;32.650;-16.902;2022-07-29T10:52:04;101774.41;;;25.49;65.51